Zim Luanda — 9HA2029 — position and weather

sailwx.info

Track history (hours):
 
Tides and Currents Weather Stations Pressure Air Temp Water Temp Dewpoint Dewpoint Depression Visibility Wind Speed Wind Dir Waves Ship Positions

Zim Luanda

Last reported at 2018-Jan-20 10:32 UTC. Time now 2018-Jan-22 06:33 UTC.
Position N 31°56' W 080°06'.

Length 260 m; draft 10.3 m.

Type: Ship (hazmat cat A). MMSI: 249830000.

Date/timePositionNaut miles runAvg speedWind from/ knotsBaromVisibWave heightAir tempDewpointWater temp
2018-Jan-20 10:32N 31°56' W 080°06'312.7
2018-Jan-20 10:18N 31°56' W 080°09'710.2
2018-Jan-20 09:35N 31°56' W 080°18'1 9.8
2018-Jan-20 09:29N 31°56' W 080°19'4 9.5
2018-Jan-20 09:01N 31°56' W 080°24'5 9.4
2018-Jan-20 08:30N 31°56' W 080°30'5 9.6
2018-Jan-20 08:01N 31°56' W 080°35'5 9.3
2018-Jan-20 07:30N 31°56' W 080°41'510.7
2018-Jan-20 07:00N 31°59' W 080°46'714.9
2018-Jan-20 06:30N 32°02' W 080°54'713.5
2018-Jan-20 06:00N 32°06' W 081°01'5 9.1
2018-Jan-20 05:30N 32°06' W 081°06'2 4.5
2018-Jan-20 04:58N 32°07' W 081°08'0 0.0
2018-Jan-20 04:28N 32°07' W 081°08'0 0.0
2018-Jan-20 03:58N 32°07' W 081°08'0 0.0
2018-Jan-20 03:28N 32°07' W 081°08'0 0.0
2018-Jan-20 02:58N 32°07' W 081°08'0 0.0
2018-Jan-20 02:28N 32°07' W 081°08'0 0.0
2018-Jan-20 01:58N 32°07' W 081°08'0 0.0
2018-Jan-20 01:28N 32°07' W 081°08'0 0.0
2018-Jan-20 00:58N 32°07' W 081°08'0 0.0
2018-Jan-20 00:28N 32°07' W 081°08'0 0.0
2018-Jan-19 23:58N 32°07' W 081°08'0 0.0
2018-Jan-19 23:28N 32°07' W 081°08'0 0.0
2018-Jan-19 22:58N 32°07' W 081°08'0 0.0
2018-Jan-19 22:28N 32°07' W 081°08'0 0.0
2018-Jan-19 21:58N 32°07' W 081°08'0 0.0
2018-Jan-19 21:28N 32°07' W 081°08'0 0.0
2018-Jan-19 20:58N 32°07' W 081°08'0 0.0
2018-Jan-19 20:28N 32°07' W 081°08'0 0.0
2018-Jan-19 19:55N 32°07' W 081°08'0 0.0
2018-Jan-19 19:28N 32°07' W 081°08'0 0.0
2018-Jan-19 18:58N 32°07' W 081°08'0 0.0
2018-Jan-19 18:28N 32°07' W 081°08'0 0.0
2018-Jan-19 17:58N 32°07' W 081°08'0 0.0
2018-Jan-19 17:28N 32°07' W 081°08'0 0.0
2018-Jan-19 16:58N 32°07' W 081°08'0 0.0
2018-Jan-19 16:28N 32°07' W 081°08'0 0.0
2018-Jan-19 15:58N 32°07' W 081°08'0 0.0
2018-Jan-19 15:28N 32°07' W 081°08'0 0.0
2018-Jan-19 14:58N 32°07' W 081°08'0 0.0
2018-Jan-19 14:28N 32°07' W 081°08'0 0.0
2018-Jan-19 13:58N 32°07' W 081°08'0 0.0
2018-Jan-19 13:28N 32°07' W 081°08'29 3.8
2018-Jan-19 05:59N 31°56' W 080°37'3 5.6
2018-Jan-19 05:30N 31°57' W 080°34'0 0.4
2018-Jan-19 04:58N 31°57' W 080°35'0 0.0
2018-Jan-19 04:28N 31°57' W 080°35'0 0.0
2018-Jan-19 03:58N 31°57' W 080°35'0 0.0
2018-Jan-19 03:25N 31°57' W 080°35'0 0.0
2018-Jan-19 02:58N 31°57' W 080°35'0 0.0
2018-Jan-19 02:25N 31°57' W 080°35'0 0.2
2018-Jan-19 01:55N 31°57' W 080°35'0 0.3
2018-Jan-19 01:28N 31°57' W 080°35'0 0.1
2018-Jan-19 00:58N 31°57' W 080°35'0 0.0
2018-Jan-19 00:28N 31°57' W 080°35'0 0.0
2018-Jan-18 23:55N 31°57' W 080°35'0 0.0
2018-Jan-18 23:28N 31°57' W 080°35'0 0.0
2018-Jan-18 22:58N 31°57' W 080°35'0 0.0
2018-Jan-18 21:01N 31°57' W 080°35'0 0.2
2018-Jan-18 20:58N 31°57' W 080°35'0 0.1
2018-Jan-18 20:16N 31°57' W 080°35'0 0.1
2018-Jan-18 19:55N 31°57' W 080°35'0 0.0
2018-Jan-18 19:25N 31°57' W 080°35'0 0.1
2018-Jan-18 18:59N 31°57' W 080°35'2 4.0
2018-Jan-18 18:30N 31°56' W 080°33'4 8.2
2018-Jan-18 17:59N 31°55' W 080°28'5 9.5
2018-Jan-18 17:27N 31°55' W 080°22'  
Track history (hours):
 
Tides and Currents Weather Stations Pressure Air Temp Water Temp Dewpoint Dewpoint Depression Visibility Wind Speed Wind Dir Waves Ship Positions

Zim Luanda

Last reported at 2018-Jan-20 10:32 UTC. Time now 2018-Jan-22 06:33 UTC.
Position N 31°56' W 080°06'.

Length 260 m; draft 10.3 m.

Type: Ship (hazmat cat A). MMSI: 249830000.

Date/timePositionNaut miles runAvg speedWind from/ knotsBaromVisibWave heightAir tempDewpointWater temp
2018-Jan-20 10:32N 31°56' W 080°06'312.7
2018-Jan-20 10:18N 31°56' W 080°09'710.2
2018-Jan-20 09:35N 31°56' W 080°18'1 9.8
2018-Jan-20 09:29N 31°56' W 080°19'4 9.5
2018-Jan-20 09:01N 31°56' W 080°24'5 9.4
2018-Jan-20 08:30N 31°56' W 080°30'5 9.6
2018-Jan-20 08:01N 31°56' W 080°35'5 9.3
2018-Jan-20 07:30N 31°56' W 080°41'510.7
2018-Jan-20 07:00N 31°59' W 080°46'714.9
2018-Jan-20 06:30N 32°02' W 080°54'713.5
2018-Jan-20 06:00N 32°06' W 081°01'5 9.1
2018-Jan-20 05:30N 32°06' W 081°06'2 4.5
2018-Jan-20 04:58N 32°07' W 081°08'0 0.0
2018-Jan-20 04:28N 32°07' W 081°08'0 0.0
2018-Jan-20 03:58N 32°07' W 081°08'0 0.0
2018-Jan-20 03:28N 32°07' W 081°08'0 0.0
2018-Jan-20 02:58N 32°07' W 081°08'0 0.0
2018-Jan-20 02:28N 32°07' W 081°08'0 0.0
2018-Jan-20 01:58N 32°07' W 081°08'0 0.0
2018-Jan-20 01:28N 32°07' W 081°08'0 0.0
2018-Jan-20 00:58N 32°07' W 081°08'0 0.0
2018-Jan-20 00:28N 32°07' W 081°08'0 0.0
2018-Jan-19 23:58N 32°07' W 081°08'0 0.0
2018-Jan-19 23:28N 32°07' W 081°08'0 0.0
2018-Jan-19 22:58N 32°07' W 081°08'0 0.0
2018-Jan-19 22:28N 32°07' W 081°08'0 0.0
2018-Jan-19 21:58N 32°07' W 081°08'0 0.0
2018-Jan-19 21:28N 32°07' W 081°08'0 0.0
2018-Jan-19 20:58N 32°07' W 081°08'0 0.0
2018-Jan-19 20:28N 32°07' W 081°08'0 0.0
2018-Jan-19 19:55N 32°07' W 081°08'0 0.0
2018-Jan-19 19:28N 32°07' W 081°08'0 0.0
2018-Jan-19 18:58N 32°07' W 081°08'0 0.0
2018-Jan-19 18:28N 32°07' W 081°08'0 0.0
2018-Jan-19 17:58N 32°07' W 081°08'0 0.0
2018-Jan-19 17:28N 32°07' W 081°08'0 0.0
2018-Jan-19 16:58N 32°07' W 081°08'0 0.0
2018-Jan-19 16:28N 32°07' W 081°08'0 0.0
2018-Jan-19 15:58N 32°07' W 081°08'0 0.0
2018-Jan-19 15:28N 32°07' W 081°08'0 0.0
2018-Jan-19 14:58N 32°07' W 081°08'0 0.0
2018-Jan-19 14:28N 32°07' W 081°08'0 0.0
2018-Jan-19 13:58N 32°07' W 081°08'0 0.0
2018-Jan-19 13:28N 32°07' W 081°08'29 3.8
2018-Jan-19 05:59N 31°56' W 080°37'3 5.6
2018-Jan-19 05:30N 31°57' W 080°34'0 0.4
2018-Jan-19 04:58N 31°57' W 080°35'0 0.0
2018-Jan-19 04:28N 31°57' W 080°35'0 0.0
2018-Jan-19 03:58N 31°57' W 080°35'0 0.0
2018-Jan-19 03:25N 31°57' W 080°35'0 0.0
2018-Jan-19 02:58N 31°57' W 080°35'0 0.0
2018-Jan-19 02:25N 31°57' W 080°35'0 0.2
2018-Jan-19 01:55N 31°57' W 080°35'0 0.3
2018-Jan-19 01:28N 31°57' W 080°35'0 0.1
2018-Jan-19 00:58N 31°57' W 080°35'0 0.0
2018-Jan-19 00:28N 31°57' W 080°35'0 0.0
2018-Jan-18 23:55N 31°57' W 080°35'0 0.0
2018-Jan-18 23:28N 31°57' W 080°35'0 0.0
2018-Jan-18 22:58N 31°57' W 080°35'0 0.0
2018-Jan-18 21:01N 31°57' W 080°35'0 0.2
2018-Jan-18 20:58N 31°57' W 080°35'0 0.1
2018-Jan-18 20:16N 31°57' W 080°35'0 0.1
2018-Jan-18 19:55N 31°57' W 080°35'0 0.0
2018-Jan-18 19:25N 31°57' W 080°35'0 0.1
2018-Jan-18 18:59N 31°57' W 080°35'2 4.0
2018-Jan-18 18:30N 31°56' W 080°33'4 8.2
2018-Jan-18 17:59N 31°55' W 080°28'5 9.5
2018-Jan-18 17:27N 31°55' W 080°22'  

Dump ship's entire track history